sensor_id;sensor_type;location;lat;lon;timestamp;pressure;altitude;pressure_sealevel;temperature;humidity
40574;BME280;26283;49.020;8.644;2023-12-20T00:00:15;99358.81;;;8.43;62.70
40574;BME280;26283;49.020;8.644;2023-12-20T00:02:41;99355.31;;;8.43;62.70
40574;BME280;26283;49.020;8.644;2023-12-20T00:05:10;99353.44;;;8.43;62.69
40574;BME280;26283;49.020;8.644;2023-12-20T00:07:35;99350.75;;;8.43;62.69
40574;BME280;26283;49.020;8.644;2023-12-20T00:10:00;99348.91;;;8.44;62.70
40574;BME280;26283;49.020;8.644;2023-12-20T00:12:26;99356.97;;;8.44;62.69
40574;BME280;26283;49.020;8.644;2023-12-20T00:14:51;99355.91;;;8.45;62.69
40574;BME280;26283;49.020;8.644;2023-12-20T00:17:16;99350.53;;;8.45;62.69
40574;BME280;26283;49.020;8.644;2023-12-20T00:19:42;99343.28;;;8.45;62.68
40574;BME280;26283;49.020;8.644;2023-12-20T00:22:07;99354.88;;;8.46;62.69
40574;BME280;26283;49.020;8.644;2023-12-20T00:24:32;99354.88;;;8.46;62.68
40574;BME280;26283;49.020;8.644;2023-12-20T00:26:58;99346.81;;;8.46;62.68
40574;BME280;26283;49.020;8.644;2023-12-20T00:29:23;99337.09;;;8.45;62.67
40574;BME280;26283;49.020;8.644;2023-12-20T00:31:48;99335.25;;;8.45;62.67
40574;BME280;26283;49.020;8.644;2023-12-20T00:34:14;99344.13;;;8.46;62.68
40574;BME280;26283;49.020;8.644;2023-12-20T00:36:39;99346.81;;;8.46;62.68
40574;BME280;26283;49.020;8.644;2023-12-20T00:39:05;99343.09;;;8.47;62.68
40574;BME280;26283;49.020;8.644;2023-12-20T00:41:31;99345.78;;;8.47;62.67
40574;BME280;26283;49.020;8.644;2023-12-20T00:43:57;99350.12;;;8.48;62.66
40574;BME280;26283;49.020;8.644;2023-12-20T00:46:22;99345.78;;;8.47;62.66
40574;BME280;26283;49.020;8.644;2023-12-20T00:48:48;99338.34;;;8.49;62.66
40574;BME280;26283;49.020;8.644;2023-12-20T00:51:13;99348.47;;;8.47;62.66
40574;BME280;26283;49.020;8.644;2023-12-20T00:53:39;99350.12;;;8.48;62.65
40574;BME280;26283;49.020;8.644;2023-12-20T00:56:04;99337.72;;;8.47;62.66
40574;BME280;26283;49.020;8.644;2023-12-20T00:58:29;99347.63;;;8.46;62.66
40574;BME280;26283;49.020;8.644;2023-12-20T01:00:55;99350.12;;;8.48;62.65
40574;BME280;26283;49.020;8.644;2023-12-20T01:03:20;99344.75;;;8.48;62.65
40574;BME280;26283;49.020;8.644;2023-12-20T01:05:45;99347.44;;;8.48;62.65
40574;BME280;26283;49.020;8.644;2023-12-20T01:08:11;99356.31;;;8.48;62.65
40574;BME280;26283;49.020;8.644;2023-12-20T01:10:37;99359.00;;;8.48;62.65
40574;BME280;26283;49.020;8.644;2023-12-20T01:13:03;99353.63;;;8.48;62.65
40574;BME280;26283;49.020;8.644;2023-12-20T01:15:28;99363.34;;;8.49;62.64
40574;BME280;26283;49.020;8.644;2023-12-20T01:17:54;99350.94;;;8.48;62.64
40574;BME280;26283;49.020;8.644;2023-12-20T01:20:19;99368.72;;;8.49;62.64
40574;BME280;26283;49.020;8.644;2023-12-20T01:22:45;99353.44;;;8.50;62.64
40574;BME280;26283;49.020;8.644;2023-12-20T01:25:11;99354.47;;;8.49;62.64
40574;BME280;26283;49.020;8.644;2023-12-20T01:27:36;99350.75;;;8.50;62.64
40574;BME280;26283;49.020;8.644;2023-12-20T01:30:01;99342.69;;;8.50;62.64
40574;BME280;26283;49.020;8.644;2023-12-20T01:32:27;99342.69;;;8.50;62.64
40574;BME280;26283;49.020;8.644;2023-12-20T01:34:52;99347.25;;;8.49;62.64
40574;BME280;26283;49.020;8.644;2023-12-20T01:37:17;99346.41;;;8.49;62.65
40574;BME280;26283;49.020;8.644;2023-12-20T01:39:43;99340.00;;;8.50;62.64
40574;BME280;26283;49.020;8.644;2023-12-20T01:42:08;99348.06;;;8.50;62.64
40574;BME280;26283;49.020;8.644;2023-12-20T01:44:33;99348.91;;;8.50;62.63
40574;BME280;26283;49.020;8.644;2023-12-20T01:46:59;99337.31;;;8.50;62.63
40574;BME280;26283;49.020;8.644;2023-12-20T01:49:25;99333.59;;;8.51;62.64
40574;BME280;26283;49.020;8.644;2023-12-20T01:51:50;99332.78;;;8.50;62.62
40574;BME280;26283;49.020;8.644;2023-12-20T01:54:17;99333.59;;;8.51;62.64
40574;BME280;26283;49.020;8.644;2023-12-20T01:56:44;99335.25;;;8.52;62.64
40574;BME280;26283;49.020;8.644;2023-12-20T01:59:10;99338.97;;;8.51;62.63
40574;BME280;26283;49.020;8.644;2023-12-20T02:01:36;99331.94;;;8.50;62.63
40574;BME280;26283;49.020;8.644;2023-12-20T02:04:01;99345.19;;;8.51;62.65
40574;BME280;26283;49.020;8.644;2023-12-20T02:06:29;99340.84;;;8.50;62.64
40574;BME280;26283;49.020;8.644;2023-12-20T02:08:57;99347.03;;;8.51;62.65
40574;BME280;26283;49.020;8.644;2023-12-20T02:11:23;99343.31;;;8.52;62.65
40574;BME280;26283;49.020;8.644;2023-12-20T02:13:50;99351.38;;;8.52;62.65
40574;BME280;26283;49.020;8.644;2023-12-20T02:16:15;99355.09;;;8.51;62.65
40574;BME280;26283;49.020;8.644;2023-12-20T02:18:42;99354.91;;;8.52;62.65
40574;BME280;26283;49.020;8.644;2023-12-20T02:21:09;99361.09;;;8.53;62.65
40574;BME280;26283;49.020;8.644;2023-12-20T02:23:34;99346.00;;;8.52;62.65
40574;BME280;26283;49.020;8.644;2023-12-20T02:26:00;99356.75;;;8.52;62.65
40574;BME280;26283;49.020;8.644;2023-12-20T02:28:25;99346.84;;;8.52;62.66
40574;BME280;26283;49.020;8.644;2023-12-20T02:30:51;99347.66;;;8.53;62.66
40574;BME280;26283;49.020;8.644;2023-12-20T02:33:16;99346.00;;;8.52;62.66
40574;BME280;26283;49.020;8.644;2023-12-20T02:35:42;99353.25;;;8.51;62.67
40574;BME280;26283;49.020;8.644;2023-12-20T02:38:07;99346.00;;;8.52;62.67
40574;BME280;26283;49.020;8.644;2023-12-20T02:40:32;99346.00;;;8.52;62.66
40574;BME280;26283;49.020;8.644;2023-12-20T02:42:58;99344.97;;;8.53;62.67
40574;BME280;26283;49.020;8.644;2023-12-20T02:45:23;99344.16;;;8.52;62.67
40574;BME280;26283;49.020;8.644;2023-12-20T02:47:49;99347.66;;;8.53;62.67
40574;BME280;26283;49.020;8.644;2023-12-20T02:50:14;99353.03;;;8.53;62.67
40574;BME280;26283;49.020;8.644;2023-12-20T02:52:39;99348.69;;;8.52;62.67
40574;BME280;26283;49.020;8.644;2023-12-20T02:55:05;99342.28;;;8.53;62.68
40574;BME280;26283;49.020;8.644;2023-12-20T02:57:30;99358.41;;;8.53;62.68
40574;BME280;26283;49.020;8.644;2023-12-20T02:59:55;99367.50;;;8.52;62.68
40574;BME280;26283;49.020;8.644;2023-12-20T03:02:21;99362.13;;;8.52;62.68
40574;BME280;26283;49.020;8.644;2023-12-20T03:04:46;99363.78;;;8.53;62.68
40574;BME280;26283;49.020;8.644;2023-12-20T03:07:11;99370.19;;;8.52;62.68
40574;BME280;26283;49.020;8.644;2023-12-20T03:09:37;99362.94;;;8.52;62.69
40574;BME280;26283;49.020;8.644;2023-12-20T03:12:03;99369.16;;;8.53;62.69
40574;BME280;26283;49.020;8.644;2023-12-20T03:14:28;99363.78;;;8.53;62.69
40574;BME280;26283;49.020;8.644;2023-12-20T03:16:53;99376.19;;;8.54;62.69
40574;BME280;26283;49.020;8.644;2023-12-20T03:19:19;99375.34;;;8.53;62.70
40574;BME280;26283;49.020;8.644;2023-12-20T03:21:44;99373.69;;;8.52;62.70
40574;BME280;26283;49.020;8.644;2023-12-20T03:24:10;99374.53;;;8.53;62.71
40574;BME280;26283;49.020;8.644;2023-12-20T03:26:35;99369.16;;;8.53;62.71
40574;BME280;26283;49.020;8.644;2023-12-20T03:29:01;99368.31;;;8.52;62.70
40574;BME280;26283;49.020;8.644;2023-12-20T03:31:26;99369.97;;;8.53;62.71
40574;BME280;26283;49.020;8.644;2023-12-20T03:33:51;99355.53;;;8.54;62.69
40574;BME280;26283;49.020;8.644;2023-12-20T03:36:19;99354.69;;;8.54;62.69
40574;BME280;26283;49.020;8.644;2023-12-20T03:38:44;99367.09;;;8.55;62.70
40574;BME280;26283;49.020;8.644;2023-12-20T03:41:10;99378.88;;;8.54;62.70
40574;BME280;26283;49.020;8.644;2023-12-20T03:43:35;99368.94;;;8.54;62.70
40574;BME280;26283;49.020;8.644;2023-12-20T03:46:00;99377.00;;;8.54;62.70
40574;BME280;26283;49.020;8.644;2023-12-20T03:48:28;99371.62;;;8.54;62.71
40574;BME280;26283;49.020;8.644;2023-12-20T03:50:53;99373.50;;;8.54;62.70
40574;BME280;26283;49.020;8.644;2023-12-20T03:53:19;99370.81;;;8.54;62.71
40574;BME280;26283;49.020;8.644;2023-12-20T03:55:44;99358.22;;;8.54;62.71
40574;BME280;26283;49.020;8.644;2023-12-20T03:58:09;99345.59;;;8.55;62.72
40574;BME280;26283;49.020;8.644;2023-12-20T04:00:35;99363.56;;;8.54;62.72
40574;BME280;26283;49.020;8.644;2023-12-20T04:03:00;99357.38;;;8.54;62.72
40574;BME280;26283;49.020;8.644;2023-12-20T04:05:25;99360.06;;;8.54;62.73
40574;BME280;26283;49.020;8.644;2023-12-20T04:07:51;99370.59;;;8.55;62.72
40574;BME280;26283;49.020;8.644;2023-12-20T04:10:16;99356.34;;;8.55;62.72
40574;BME280;26283;49.020;8.644;2023-12-20T04:12:41;99355.31;;;8.56;62.73
40574;BME280;26283;49.020;8.644;2023-12-20T04:15:07;99367.09;;;8.55;62.73
40574;BME280;26283;49.020;8.644;2023-12-20T04:17:35;99375.16;;;8.55;62.73
40574;BME280;26283;49.020;8.644;2023-12-20T04:20:01;99378.66;;;8.55;62.73
40574;BME280;26283;49.020;8.644;2023-12-20T04:22:27;99386.72;;;8.55;62.73
40574;BME280;26283;49.020;8.644;2023-12-20T04:24:53;99392.09;;;8.55;62.73
40574;BME280;26283;49.020;8.644;2023-12-20T04:27:18;99386.94;;;8.54;62.73
40574;BME280;26283;49.020;8.644;2023-12-20T04:29:43;99384.03;;;8.55;62.73
40574;BME280;26283;49.020;8.644;2023-12-20T04:32:09;99395.62;;;8.56;62.73
40574;BME280;26283;49.020;8.644;2023-12-20T04:34:34;99392.91;;;8.56;62.74
40574;BME280;26283;49.020;8.644;2023-12-20T04:36:59;99392.09;;;8.55;62.74
40574;BME280;26283;49.020;8.644;2023-12-20T04:39:26;99387.56;;;8.56;62.74
40574;BME280;26283;49.020;8.644;2023-12-20T04:41:52;99395.62;;;8.56;62.74
40574;BME280;26283;49.020;8.644;2023-12-20T04:44:17;99395.62;;;8.56;62.75
40574;BME280;26283;49.020;8.644;2023-12-20T04:46:43;99403.66;;;8.56;62.75
40574;BME280;26283;49.020;8.644;2023-12-20T04:49:08;99405.53;;;8.55;62.76
40574;BME280;26283;49.020;8.644;2023-12-20T04:51:34;99407.19;;;8.56;62.75
40574;BME280;26283;49.020;8.644;2023-12-20T04:54:00;99412.56;;;8.56;62.76
40574;BME280;26283;49.020;8.644;2023-12-20T04:56:25;99409.03;;;8.56;62.75
40574;BME280;26283;49.020;8.644;2023-12-20T04:58:51;99417.09;;;8.56;62.76
40574;BME280;26283;49.020;8.644;2023-12-20T05:01:17;99414.41;;;8.56;62.76
40574;BME280;26283;49.020;8.644;2023-12-20T05:03:42;99416.06;;;8.57;62.76
40574;BME280;26283;49.020;8.644;2023-12-20T05:06:07;99415.44;;;8.55;62.75
40574;BME280;26283;49.020;8.644;2023-12-20T05:08:33;99424.97;;;8.57;62.75
40574;BME280;26283;49.020;8.644;2023-12-20T05:10:58;99412.56;;;8.56;62.76
40574;BME280;26283;49.020;8.644;2023-12-20T05:13:24;99419.78;;;8.56;62.75
40574;BME280;26283;49.020;8.644;2023-12-20T05:15:49;99427.84;;;8.56;62.76
40574;BME280;26283;49.020;8.644;2023-12-20T05:18:14;99427.84;;;8.56;62.76
40574;BME280;26283;49.020;8.644;2023-12-20T05:20:40;99427.84;;;8.56;62.77
40574;BME280;26283;49.020;8.644;2023-12-20T05:23:06;99428.69;;;8.56;62.78
40574;BME280;26283;49.020;8.644;2023-12-20T05:25:31;99440.25;;;8.57;62.79
40574;BME280;26283;49.020;8.644;2023-12-20T05:27:56;99442.94;;;8.57;62.78
40574;BME280;26283;49.020;8.644;2023-12-20T05:30:22;99443.13;;;8.55;62.78
40574;BME280;26283;49.020;8.644;2023-12-20T05:32:47;99446.44;;;8.57;62.78
40574;BME280;26283;49.020;8.644;2023-12-20T05:35:13;99450.16;;;8.56;62.78
40574;BME280;26283;49.020;8.644;2023-12-20T05:37:38;99456.38;;;8.57;62.79
40574;BME280;26283;49.020;8.644;2023-12-20T05:40:04;99451.81;;;8.57;62.79
40574;BME280;26283;49.020;8.644;2023-12-20T05:42:30;99445.63;;;8.57;62.80
40574;BME280;26283;49.020;8.644;2023-12-20T05:44:55;99456.38;;;8.57;62.80
40574;BME280;26283;49.020;8.644;2023-12-20T05:47:21;99457.38;;;8.56;62.79
40574;BME280;26283;49.020;8.644;2023-12-20T05:49:46;99466.06;;;8.58;62.80
40574;BME280;26283;49.020;8.644;2023-12-20T05:52:11;99464.41;;;8.57;62.80
40574;BME280;26283;49.020;8.644;2023-12-20T05:54:37;99480.34;;;8.58;62.80
40574;BME280;26283;49.020;8.644;2023-12-20T05:57:02;99483.22;;;8.57;62.81
40574;BME280;26283;49.020;8.644;2023-12-20T05:59:27;99480.34;;;8.58;62.81
40574;BME280;26283;49.020;8.644;2023-12-20T06:01:53;99479.50;;;8.58;62.81
40574;BME280;26283;49.020;8.644;2023-12-20T06:04:19;99483.22;;;8.57;62.81
40574;BME280;26283;49.020;8.644;2023-12-20T06:06:44;99488.41;;;8.58;62.80
40574;BME280;26283;49.020;8.644;2023-12-20T06:09:10;99479.50;;;8.58;62.81
40574;BME280;26283;49.020;8.644;2023-12-20T06:11:35;99484.06;;;8.57;62.82
40574;BME280;26283;49.020;8.644;2023-12-20T06:14:01;99492.94;;;8.58;62.82
40574;BME280;26283;49.020;8.644;2023-12-20T06:16:26;99492.94;;;8.58;62.82
40574;BME280;26283;49.020;8.644;2023-12-20T06:18:51;99515.25;;;8.58;62.82
40574;BME280;26283;49.020;8.644;2023-12-20T06:21:17;99505.53;;;8.57;62.82
40574;BME280;26283;49.020;8.644;2023-12-20T06:23:42;99514.44;;;8.58;62.83
40574;BME280;26283;49.020;8.644;2023-12-20T06:26:07;99509.06;;;8.58;62.84
40574;BME280;26283;49.020;8.644;2023-12-20T06:28:33;99521.66;;;8.57;62.84
40574;BME280;26283;49.020;8.644;2023-12-20T06:30:58;99527.87;;;8.58;62.85
40574;BME280;26283;49.020;8.644;2023-12-20T06:33:25;99519.81;;;8.58;62.85
40574;BME280;26283;49.020;8.644;2023-12-20T06:35:51;99526.84;;;8.59;62.84
40574;BME280;26283;49.020;8.644;2023-12-20T06:38:18;99527.87;;;8.58;62.85
40574;BME280;26283;49.020;8.644;2023-12-20T06:40:43;99542.94;;;8.59;62.85
40574;BME280;26283;49.020;8.644;2023-12-20T06:43:09;99531.56;;;8.57;62.84
40574;BME280;26283;49.020;8.644;2023-12-20T06:45:34;99524.16;;;8.59;62.85
40574;BME280;26283;49.020;8.644;2023-12-20T06:48:00;99530.56;;;8.58;62.84
40574;BME280;26283;49.020;8.644;2023-12-20T06:50:25;99529.53;;;8.59;62.84
40574;BME280;26283;49.020;8.644;2023-12-20T06:52:51;99526.00;;;8.58;62.84
40574;BME280;26283;49.020;8.644;2023-12-20T06:55:17;99533.22;;;8.58;62.84
40574;BME280;26283;49.020;8.644;2023-12-20T06:57:42;99537.59;;;8.59;62.84
40574;BME280;26283;49.020;8.644;2023-12-20T07:00:08;99548.12;;;8.61;62.84
40574;BME280;26283;49.020;8.644;2023-12-20T07:02:34;99543.16;;;8.57;62.86
40574;BME280;26283;49.020;8.644;2023-12-20T07:04:59;99554.72;;;8.58;62.85
40574;BME280;26283;49.020;8.644;2023-12-20T07:07:25;99559.72;;;8.61;62.86
40574;BME280;26283;49.020;8.644;2023-12-20T07:09:51;99564.25;;;8.61;62.85
40574;BME280;26283;49.020;8.644;2023-12-20T07:12:17;99556.38;;;8.59;62.85
40574;BME280;26283;49.020;8.644;2023-12-20T07:14:44;99561.56;;;8.61;62.85
40574;BME280;26283;49.020;8.644;2023-12-20T07:17:10;99561.75;;;8.59;62.86
40574;BME280;26283;49.020;8.644;2023-12-20T07:19:37;99570.66;;;8.59;62.87
40574;BME280;26283;49.020;8.644;2023-12-20T07:22:04;99578.72;;;8.59;62.87
40574;BME280;26283;49.020;8.644;2023-12-20T07:24:29;99583.06;;;8.61;62.86
40574;BME280;26283;49.020;8.644;2023-12-20T07:26:54;99582.22;;;8.60;62.87
40574;BME280;26283;49.020;8.644;2023-12-20T07:29:20;99587.59;;;8.60;62.87
40574;BME280;26283;49.020;8.644;2023-12-20T07:31:46;99591.94;;;8.61;62.87
40574;BME280;26283;49.020;8.644;2023-12-20T07:34:11;99590.47;;;8.58;62.87
40574;BME280;26283;49.020;8.644;2023-12-20T07:36:37;99588.44;;;8.61;62.87
40574;BME280;26283;49.020;8.644;2023-12-20T07:39:02;99592.13;;;8.59;62.87
40574;BME280;26283;49.020;8.644;2023-12-20T07:41:28;99595.03;;;8.58;62.88
40574;BME280;26283;49.020;8.644;2023-12-20T07:43:53;99599.16;;;8.61;62.87
40574;BME280;26283;49.020;8.644;2023-12-20T07:46:20;99593.81;;;8.61;62.88
40574;BME280;26283;49.020;8.644;2023-12-20T07:48:47;99605.37;;;8.61;62.87
40574;BME280;26283;49.020;8.644;2023-12-20T07:51:13;99605.37;;;8.61;62.87
40574;BME280;26283;49.020;8.644;2023-12-20T07:53:38;99597.31;;;8.61;62.88
40574;BME280;26283;49.020;8.644;2023-12-20T07:56:16;99601.84;;;8.61;62.87
40574;BME280;26283;49.020;8.644;2023-12-20T07:58:42;99596.47;;;8.61;62.88
40574;BME280;26283;49.020;8.644;2023-12-20T08:01:08;99597.31;;;8.61;62.87
40574;BME280;26283;49.020;8.644;2023-12-20T08:03:33;99597.31;;;8.61;62.88
40574;BME280;26283;49.020;8.644;2023-12-20T08:05:59;99600.00;;;8.61;62.89
40574;BME280;26283;49.020;8.644;2023-12-20T08:08:25;99607.22;;;8.61;62.89
40574;BME280;26283;49.020;8.644;2023-12-20T08:10:50;99619.63;;;8.62;62.89
40574;BME280;26283;49.020;8.644;2023-12-20T08:13:16;99627.69;;;8.62;62.90
40574;BME280;26283;49.020;8.644;2023-12-20T08:15:41;99618.81;;;8.61;62.90
40574;BME280;26283;49.020;8.644;2023-12-20T08:18:07;99623.16;;;8.62;62.90
40574;BME280;26283;49.020;8.644;2023-12-20T08:20:32;99619.63;;;8.62;62.89
40574;BME280;26283;49.020;8.644;2023-12-20T08:22:58;99609.09;;;8.60;62.90
40574;BME280;26283;49.020;8.644;2023-12-20T08:25:23;99617.97;;;8.61;62.90
40574;BME280;26283;49.020;8.644;2023-12-20T08:27:48;99626.66;;;8.63;62.89
40574;BME280;26283;49.020;8.644;2023-12-20T08:30:14;99627.69;;;8.62;62.89
40574;BME280;26283;49.020;8.644;2023-12-20T08:32:39;99626.03;;;8.61;62.89
40574;BME280;26283;49.020;8.644;2023-12-20T08:35:05;99625.84;;;8.62;62.90
40574;BME280;26283;49.020;8.644;2023-12-20T08:37:31;99617.97;;;8.61;62.90
40574;BME280;26283;49.020;8.644;2023-12-20T08:39:56;99624.19;;;8.61;62.90
40574;BME280;26283;49.020;8.644;2023-12-20T08:42:21;99628.53;;;8.62;62.90
40574;BME280;26283;49.020;8.644;2023-12-20T08:44:47;99640.31;;;8.61;62.91
40574;BME280;26283;49.020;8.644;2023-12-20T08:47:12;99650.03;;;8.62;62.91
40574;BME280;26283;49.020;8.644;2023-12-20T08:49:41;99642.16;;;8.61;62.91
40574;BME280;26283;49.020;8.644;2023-12-20T08:52:06;99647.34;;;8.62;62.91
40574;BME280;26283;49.020;8.644;2023-12-20T08:54:31;99638.25;;;8.63;62.91
40574;BME280;26283;49.020;8.644;2023-12-20T08:56:57;99629.34;;;8.63;62.91
40574;BME280;26283;49.020;8.644;2023-12-20T08:59:22;99633.91;;;8.62;62.92
40574;BME280;26283;49.020;8.644;2023-12-20T09:01:47;99639.28;;;8.62;62.93
40574;BME280;26283;49.020;8.644;2023-12-20T09:04:13;99644.66;;;8.62;62.93
40574;BME280;26283;49.020;8.644;2023-12-20T09:06:38;99641.97;;;8.62;62.94
40574;BME280;26283;49.020;8.644;2023-12-20T09:09:04;99641.75;;;8.64;62.95
40574;BME280;26283;49.020;8.644;2023-12-20T09:11:29;99639.09;;;8.64;62.95
40574;BME280;26283;49.020;8.644;2023-12-20T09:13:55;99633.72;;;8.64;62.96
40574;BME280;26283;49.020;8.644;2023-12-20T09:16:20;99633.72;;;8.64;62.96
40574;BME280;26283;49.020;8.644;2023-12-20T09:18:46;99637.22;;;8.64;62.97
40574;BME280;26283;49.020;8.644;2023-12-20T09:21:11;99642.59;;;8.64;62.97
40574;BME280;26283;49.020;8.644;2023-12-20T09:23:37;99646.12;;;8.65;62.97
40574;BME280;26283;49.020;8.644;2023-12-20T09:26:03;99639.91;;;8.64;62.98
40574;BME280;26283;49.020;8.644;2023-12-20T09:28:29;99630.81;;;8.65;62.98
40574;BME280;26283;49.020;8.644;2023-12-20T09:30:54;99640.75;;;8.65;62.98
40574;BME280;26283;49.020;8.644;2023-12-20T09:33:19;99632.03;;;8.63;62.97
40574;BME280;26283;49.020;8.644;2023-12-20T09:35:45;99632.44;;;8.66;62.97
40574;BME280;26283;49.020;8.644;2023-12-20T09:38:10;99624.41;;;8.66;62.97
40574;BME280;26283;49.020;8.644;2023-12-20T09:40:38;99632.44;;;8.66;62.97
40574;BME280;26283;49.020;8.644;2023-12-20T09:43:12;99625.44;;;8.65;62.96
40574;BME280;26283;49.020;8.644;2023-12-20T09:45:39;99633.28;;;8.67;62.95
40574;BME280;26283;49.020;8.644;2023-12-20T09:48:06;99639.50;;;8.67;62.96
40574;BME280;26283;49.020;8.644;2023-12-20T09:50:32;99651.06;;;8.68;62.96
40574;BME280;26283;49.020;8.644;2023-12-20T09:53:00;99651.06;;;8.68;62.96
40574;BME280;26283;49.020;8.644;2023-12-20T09:55:27;99651.91;;;8.68;62.96
40574;BME280;26283;49.020;8.644;2023-12-20T09:57:54;99647.16;;;8.70;62.96
40574;BME280;26283;49.020;8.644;2023-12-20T10:00:20;99640.13;;;8.69;62.94
40574;BME280;26283;49.020;8.644;2023-12-20T10:02:52;99639.72;;;8.72;62.92
40574;BME280;26283;49.020;8.644;2023-12-20T10:05:26;99637.06;;;8.72;62.92
40574;BME280;26283;49.020;8.644;2023-12-20T10:07:52;99641.59;;;8.72;62.92
40574;BME280;26283;49.020;8.644;2023-12-20T10:10:17;99646.78;;;8.73;62.92
40574;BME280;26283;49.020;8.644;2023-12-20T10:13:10;99646.97;;;8.72;62.92
40574;BME280;26283;49.020;8.644;2023-12-20T10:15:36;99640.56;;;8.73;62.94
40574;BME280;26283;49.020;8.644;2023-12-20T10:18:03;99629.00;;;8.72;62.91
40574;BME280;26283;49.020;8.644;2023-12-20T10:20:31;99634.16;;;8.74;62.92
40574;BME280;26283;49.020;8.644;2023-12-20T10:23:00;99624.25;;;8.74;62.94
40574;BME280;26283;49.020;8.644;2023-12-20T10:25:26;99635.00;;;8.74;62.93
40574;BME280;26283;49.020;8.644;2023-12-20T10:28:12;99635.00;;;8.74;62.93
40574;BME280;26283;49.020;8.644;2023-12-20T10:30:39;99632.31;;;8.74;62.95
40574;BME280;26283;49.020;8.644;2023-12-20T10:33:08;99631.28;;;8.75;62.90
40574;BME280;26283;49.020;8.644;2023-12-20T10:35:34;99633.78;;;8.77;62.91
40574;BME280;26283;49.020;8.644;2023-12-20T10:38:03;99635.63;;;8.76;62.91
40574;BME280;26283;49.020;8.644;2023-12-20T10:40:29;99630.25;;;8.76;62.90
40574;BME280;26283;49.020;8.644;2023-12-20T10:42:55;99630.91;;;8.78;62.91
40574;BME280;26283;49.020;8.644;2023-12-20T10:45:22;99625.53;;;8.78;62.89
40574;BME280;26283;49.020;8.644;2023-12-20T10:47:50;99630.91;;;8.78;62.89
40574;BME280;26283;49.020;8.644;2023-12-20T10:50:15;99632.56;;;8.79;62.87
40574;BME280;26283;49.020;8.644;2023-12-20T10:52:42;99630.69;;;8.80;62.86
40574;BME280;26283;49.020;8.644;2023-12-20T10:55:08;99631.53;;;8.80;62.83
40574;BME280;26283;49.020;8.644;2023-12-20T10:57:36;99630.50;;;8.81;62.81
40574;BME280;26283;49.020;8.644;2023-12-20T11:00:03;99627.81;;;8.81;62.82
40574;BME280;26283;49.020;8.644;2023-12-20T11:02:32;99625.13;;;8.81;62.80
40574;BME280;26283;49.020;8.644;2023-12-20T11:05:13;99629.47;;;8.82;62.80
40574;BME280;26283;49.020;8.644;2023-12-20T11:07:48;99625.75;;;8.83;62.79
40574;BME280;26283;49.020;8.644;2023-12-20T11:10:26;99624.94;;;8.83;62.76
40574;BME280;26283;49.020;8.644;2023-12-20T11:12:58;99623.91;;;8.84;62.76
40574;BME280;26283;49.020;8.644;2023-12-20T11:15:28;99606.94;;;8.83;62.74
40574;BME280;26283;49.020;8.644;2023-12-20T11:17:55;99595.16;;;8.84;62.75
40574;BME280;26283;49.020;8.644;2023-12-20T11:20:23;99602.41;;;8.84;62.75
40574;BME280;26283;49.020;8.644;2023-12-20T11:22:54;99592.47;;;8.84;62.74
40574;BME280;26283;49.020;8.644;2023-12-20T11:25:21;99592.47;;;8.84;62.74
40574;BME280;26283;49.020;8.644;2023-12-20T11:28:07;99596.00;;;8.85;62.73
40574;BME280;26283;49.020;8.644;2023-12-20T11:30:47;99604.91;;;8.85;62.72
40574;BME280;26283;49.020;8.644;2023-12-20T11:33:16;99604.69;;;8.87;62.71
40574;BME280;26283;49.020;8.644;2023-12-20T11:35:42;99604.91;;;8.85;62.71
40574;BME280;26283;49.020;8.644;2023-12-20T11:38:09;99597.66;;;8.86;62.71
40574;BME280;26283;49.020;8.644;2023-12-20T11:40:35;99602.84;;;8.87;62.70
40574;BME280;26283;49.020;8.644;2023-12-20T11:43:01;99595.56;;;8.88;62.68
40574;BME280;26283;49.020;8.644;2023-12-20T11:45:26;99593.12;;;8.86;62.68
40574;BME280;26283;49.020;8.644;2023-12-20T11:47:52;99596.41;;;8.88;62.68
40574;BME280;26283;49.020;8.644;2023-12-20T11:50:22;99580.28;;;8.88;62.68
40574;BME280;26283;49.020;8.644;2023-12-20T11:52:49;99583.78;;;8.89;62.67
40574;BME280;26283;49.020;8.644;2023-12-20T11:55:14;99584.63;;;8.89;62.65
40574;BME280;26283;49.020;8.644;2023-12-20T11:57:40;99592.69;;;8.89;62.64
40574;BME280;26283;49.020;8.644;2023-12-20T12:00:06;99586.28;;;8.90;62.63
40574;BME280;26283;49.020;8.644;2023-12-20T12:02:32;99587.13;;;8.91;62.63
40574;BME280;26283;49.020;8.644;2023-12-20T12:04:59;99586.09;;;8.92;62.63
40574;BME280;26283;49.020;8.644;2023-12-20T12:07:24;99586.28;;;8.90;62.62
40574;BME280;26283;49.020;8.644;2023-12-20T12:09:50;99580.09;;;8.90;62.61
40574;BME280;26283;49.020;8.644;2023-12-20T12:12:16;99576.38;;;8.91;62.59
40574;BME280;26283;49.020;8.644;2023-12-20T12:14:44;99585.25;;;8.91;62.59
40574;BME280;26283;49.020;8.644;2023-12-20T12:17:13;99585.88;;;8.93;62.58
40574;BME280;26283;49.020;8.644;2023-12-20T12:19:42;99573.47;;;8.92;62.57
40574;BME280;26283;49.020;8.644;2023-12-20T12:22:14;99560.03;;;8.92;62.56
40574;BME280;26283;49.020;8.644;2023-12-20T12:24:43;99567.91;;;8.94;62.55
40574;BME280;26283;49.020;8.644;2023-12-20T12:27:09;99567.91;;;8.94;62.54
40574;BME280;26283;49.020;8.644;2023-12-20T12:29:36;99568.09;;;8.92;62.54
40574;BME280;26283;49.020;8.644;2023-12-20T12:32:05;99560.66;;;8.94;62.54
40574;BME280;26283;49.020;8.644;2023-12-20T12:34:32;99557.16;;;8.94;62.54
40574;BME280;26283;49.020;8.644;2023-12-20T12:36:58;99554.25;;;8.96;62.53
40574;BME280;26283;49.020;8.644;2023-12-20T12:39:24;99551.78;;;8.94;62.52
40574;BME280;26283;49.020;8.644;2023-12-20T12:41:53;99561.50;;;8.95;62.52
40574;BME280;26283;49.020;8.644;2023-12-20T12:44:18;99573.09;;;8.96;62.51
40574;BME280;26283;49.020;8.644;2023-12-20T12:46:47;99564.19;;;8.95;62.50
40574;BME280;26283;49.020;8.644;2023-12-20T12:49:16;99573.91;;;8.96;62.52
40574;BME280;26283;49.020;8.644;2023-12-20T12:51:42;99556.12;;;8.95;62.51
40574;BME280;26283;49.020;8.644;2023-12-20T12:54:08;99553.25;;;8.97;62.51
40574;BME280;26283;49.020;8.644;2023-12-20T12:56:34;99556.75;;;8.97;62.52
40574;BME280;26283;49.020;8.644;2023-12-20T12:58:59;99559.44;;;8.97;62.50
40574;BME280;26283;49.020;8.644;2023-12-20T13:01:25;99564.00;;;8.97;62.50
40574;BME280;26283;49.020;8.644;2023-12-20T13:03:50;99569.38;;;8.97;62.48